Time;durP1;ratioP1;P1;durP2;ratioP2;P2;SDS_P1;SDS_P2;PMS_P1;PMS_P2;Temp;Humidity;BMP_temperature;BMP_pressure;BME280_temperature;BME280_humidity;BME280_pressure;Samples;Min_cycle;Max_cycle;Signal;HPM_P1;HPM_P2
2022/09/30 00:01:55;;;;;;;4.05;1.85;;;;;;;22.52;52.81;100263.33;1727966;82;21085;-80
2022/09/30 00:04:23;;;;;;;3.25;2.22;;;;;;;22.51;52.82;100264.48;1766414;80;21001;-80
2022/09/30 00:06:50;;;;;;;2.77;2.30;;;;;;;22.51;52.82;100265.05;1739647;82;21071;-81
2022/09/30 00:09:17;;;;;;;3.98;2.10;;;;;;;22.51;52.80;100266.44;1739764;82;21157;-80
2022/09/30 00:11:44;;;;;;;5.20;2.45;;;;;;;22.51;52.80;100261.70;1739470;82;21074;-80
2022/09/30 00:14:15;;;;;;;4.83;2.47;;;;;;;22.51;52.79;100264.48;1739603;82;20963;-80
2022/09/30 00:16:41;;;;;;;4.28;2.52;;;;;;;22.50;52.80;100258.69;1767170;81;21560;-81
2022/09/30 00:19:07;;;;;;;3.85;2.42;;;;;;;22.50;52.77;100254.53;1749979;80;21490;-80
2022/09/30 00:21:34;;;;;;;5.12;2.37;;;;;;;22.50;52.77;100258.69;1710328;82;21093;-81
2022/09/30 00:24:01;;;;;;;3.92;2.50;;;;;;;22.49;52.78;100257.06;1708542;83;21162;-80
2022/09/30 00:26:28;;;;;;;4.83;2.17;;;;;;;22.49;52.77;100264.00;1716393;82;21123;-80
2022/09/30 00:28:57;;;;;;;3.47;2.47;;;;;;;22.50;52.77;100268.97;1716277;82;21503;-81
2022/09/30 00:31:32;;;;;;;3.20;2.30;;;;;;;22.50;52.75;100271.74;1782133;79;21057;-81
2022/09/30 00:34:07;;;;;;;3.77;2.12;;;;;;;22.49;52.77;100277.08;1781773;80;21076;-80
2022/09/30 00:36:47;;;;;;;4.62;2.33;;;;;;;22.49;52.74;100279.25;1782224;80;21803;-80
2022/09/30 00:39:17;;;;;;;3.92;2.70;;;;;;;22.48;52.74;100278.22;1782332;80;21049;-80
2022/09/30 00:41:45;;;;;;;4.70;2.60;;;;;;;22.45;52.72;100270.59;1782280;80;21627;-80
2022/09/30 00:44:51;;;;;;;3.58;2.50;;;;;;;22.47;52.71;100270.48;1782293;80;21061;-80
2022/09/30 00:47:35;;;;;;;4.42;2.10;;;;;;;22.47;52.74;100270.48;1782241;80;21519;-80
2022/09/30 00:50:16;;;;;;;4.67;2.22;;;;;;;22.47;52.69;100272.44;1782392;80;21463;-80
2022/09/30 00:52:45;;;;;;;3.75;2.20;;;;;;;22.46;52.69;100277.16;1782103;80;21479;-80
2022/09/30 00:55:25;;;;;;;4.40;2.05;;;;;;;22.46;52.67;100269.42;1782377;80;21470;-80
2022/09/30 00:57:52;;;;;;;4.00;2.50;;;;;;;22.45;52.67;100270.59;1743449;80;21489;-79
2022/09/30 01:00:18;;;;;;;3.45;2.02;;;;;;;22.45;52.66;100267.22;1767700;80;21124;-80
2022/09/30 01:02:46;;;;;;;5.35;2.22;;;;;;;22.44;52.69;100267.02;1750963;82;21113;-80
2022/09/30 01:05:13;;;;;;;5.10;2.30;;;;;;;22.45;52.67;100260.30;1726579;81;21066;-80
2022/09/30 01:07:39;;;;;;;5.15;2.47;;;;;;;22.45;52.66;100260.90;1782338;80;21020;-80
2022/09/30 01:10:06;;;;;;;3.00;2.08;;;;;;;22.45;52.65;100260.90;1751682;80;21103;-79
2022/09/30 01:12:32;;;;;;;4.72;2.30;;;;;;;22.45;52.65;100256.14;1751888;80;21004;-80
2022/09/30 01:14:58;;;;;;;3.77;2.35;;;;;;;22.45;52.64;100267.22;1782553;80;20924;-80
2022/09/30 01:17:36;;;;;;;3.92;2.30;;;;;;;22.45;52.64;100258.13;1782463;80;21039;-80
2022/09/30 01:20:39;;;;;;;3.27;2.30;;;;;;;22.44;52.63;100263.43;1780589;80;21059;-80
2022/09/30 01:23:35;;;;;;;3.20;2.33;;;;;;;22.46;52.62;100270.81;1785166;80;20996;-80
2022/09/30 01:26:13;;;;;;;3.33;2.33;;;;;;;22.44;52.59;100270.36;1726933;81;21072;-80
2022/09/30 01:28:50;;;;;;;5.15;2.77;;;;;;;22.44;52.57;100267.02;1782118;79;21140;-81
2022/09/30 01:31:41;;;;;;;4.83;2.52;;;;;;;22.44;52.53;100273.12;1782069;80;21048;-80
2022/09/30 01:34:35;;;;;;;4.85;2.77;;;;;;;22.43;52.54;100272.89;1782005;80;22117;-81
2022/09/30 01:37:18;;;;;;;3.58;2.15;;;;;;;22.43;52.55;100272.31;1749075;81;21071;-81
2022/09/30 01:40:21;;;;;;;3.90;2.70;;;;;;;22.42;52.53;100274.84;1782275;80;21464;-81
2022/09/30 01:43:10;;;;;;;4.78;2.60;;;;;;;22.43;52.53;100281.20;1743675;81;21875;-81
2022/09/30 01:45:44;;;;;;;4.15;2.80;;;;;;;22.41;52.53;100280.15;1749629;81;21109;-81
2022/09/30 01:48:24;;;;;;;6.03;3.02;;;;;;;22.41;52.50;100271.02;1753924;80;20935;-81
2022/09/30 01:51:02;;;;;;;3.15;2.33;;;;;;;22.41;52.52;100280.15;1746067;82;22012;-80
2022/09/30 01:53:52;;;;;;;4.55;2.70;;;;;;;22.41;52.52;100277.95;1745536;82;21034;-81
2022/09/30 01:56:35;;;;;;;4.57;2.60;;;;;;;22.41;52.52;100286.27;1745091;81;21248;-81
2022/09/30 01:59:12;;;;;;;5.70;2.72;;;;;;;22.40;52.52;100281.90;1735641;80;21052;-81
2022/09/30 02:01:49;;;;;;;5.67;2.90;;;;;;;22.41;52.50;100289.03;1705139;83;20998;-81
2022/09/30 02:04:21;;;;;;;5.65;2.95;;;;;;;22.40;52.50;100291.02;1725138;82;21104;-81
2022/09/30 02:06:51;;;;;;;4.33;2.55;;;;;;;22.40;52.50;100288.25;1728624;82;21018;-81
2022/09/30 02:09:28;;;;;;;3.92;2.47;;;;;;;22.40;52.52;100291.02;1708624;82;21086;-81
2022/09/30 02:11:59;;;;;;;3.95;2.37;;;;;;;22.40;52.50;100289.64;1728795;82;21022;-81
2022/09/30 02:14:33;;;;;;;3.37;2.47;;;;;;;22.40;52.49;100291.02;1728470;81;21045;-81
2022/09/30 02:17:03;;;;;;;5.17;2.65;;;;;;;22.41;52.48;100289.03;1729099;81;21761;-81
2022/09/30 02:19:40;;;;;;;4.75;2.62;;;;;;;22.41;52.48;100297.35;1728623;81;21083;-81
2022/09/30 02:22:17;;;;;;;5.40;2.45;;;;;;;22.41;52.47;100298.16;1708752;83;21072;-81
2022/09/30 02:24:44;;;;;;;4.12;2.72;;;;;;;22.41;52.46;100286.27;1728956;83;21110;-81
2022/09/30 02:27:19;;;;;;;3.58;2.35;;;;;;;22.41;52.45;100286.27;1729085;83;21084;-81
2022/09/30 02:29:49;;;;;;;4.67;2.85;;;;;;;22.41;52.45;100292.62;1729241;83;21074;-81
2022/09/30 02:32:29;;;;;;;5.58;2.60;;;;;;;22.41;52.45;100289.85;1729271;83;21030;-81
2022/09/30 02:35:00;;;;;;;3.30;2.55;;;;;;;22.41;52.44;100299.55;1729598;83;21443;-81
2022/09/30 02:37:31;;;;;;;4.70;2.27;;;;;;;22.41;52.40;100300.94;1728978;83;21528;-81
2022/09/30 02:40:14;;;;;;;5.70;2.72;;;;;;;22.41;52.38;100307.87;1729503;83;21112;-81
2022/09/30 02:42:43;;;;;;;4.50;2.83;;;;;;;22.41;52.40;100312.02;1729222;82;20998;-81
2022/09/30 02:45:11;;;;;;;5.67;3.00;;;;;;;22.41;52.36;100315.37;1708781;83;21053;-81
2022/09/30 02:48:20;;;;;;;3.85;2.40;;;;;;;22.40;52.36;100306.84;1729431;83;21969;-81
2022/09/30 02:51:10;;;;;;;4.20;2.80;;;;;;;22.41;52.36;100309.83;1728583;81;21340;-81
2022/09/30 02:53:56;;;;;;;4.20;2.50;;;;;;;22.41;52.32;100313.98;1741486;81;21060;-80
2022/09/30 02:56:30;;;;;;;4.65;2.62;;;;;;;22.41;52.31;100316.75;1714018;81;21056;-81
2022/09/30 02:58:57;;;;;;;4.85;2.85;;;;;;;22.40;52.31;100324.86;1743607;81;21101;-81
2022/09/30 03:01:23;;;;;;;3.65;2.47;;;;;;;22.40;52.31;100326.24;1729440;83;21069;-81
2022/09/30 03:03:58;;;;;;;4.75;2.60;;;;;;;22.40;52.31;100329.83;1729196;83;21089;-81
2022/09/30 03:06:24;;;;;;;5.83;2.42;;;;;;;22.40;52.31;100327.63;1733408;82;21535;-81
2022/09/30 03:08:52;;;;;;;4.33;2.47;;;;;;;22.40;52.31;100326.24;1713217;82;22370;-81
2022/09/30 03:11:26;;;;;;;4.60;2.72;;;;;;;22.39;52.29;100324.05;1733889;82;21081;-81
2022/09/30 03:14:16;;;;;;;4.33;2.27;;;;;;;22.40;52.29;100324.29;1734020;82;21309;-81
2022/09/30 03:17:08;;;;;;;4.73;2.47;;;;;;;22.39;52.27;100326.81;1734100;81;21010;-80
2022/09/30 03:19:46;;;;;;;4.58;2.83;;;;;;;22.39;52.25;100325.43;1732543;81;21167;-81
2022/09/30 03:22:35;;;;;;;4.60;2.50;;;;;;;22.38;52.22;100327.96;1717474;83;21061;-81
2022/09/30 03:25:19;;;;;;;4.08;2.30;;;;;;;22.38;52.22;100329.92;1717992;83;21051;-81
2022/09/30 03:28:15;;;;;;;3.47;2.47;;;;;;;22.38;52.20;100332.12;1717520;83;21229;-81
2022/09/30 03:31:17;;;;;;;4.97;2.65;;;;;;;22.38;52.19;100329.34;1706208;83;21030;-80
2022/09/30 03:34:04;;;;;;;4.40;2.45;;;;;;;22.38;52.17;100342.39;1706018;83;21357;-81
2022/09/30 03:36:44;;;;;;;4.15;2.52;;;;;;;22.36;52.15;100355.22;1694109;81;21002;-80
2022/09/30 03:39:22;;;;;;;5.95;2.92;;;;;;;22.37;52.15;100358.78;1742141;81;21551;-81
2022/09/30 03:42:06;;;;;;;4.80;2.50;;;;;;;22.36;52.15;100358.00;1742452;81;21613;-81
2022/09/30 03:44:41;;;;;;;3.60;2.30;;;;;;;22.36;52.15;100352.45;1700077;81;21552;-81
2022/09/30 03:47:09;;;;;;;4.25;2.65;;;;;;;22.36;52.15;100353.84;1742455;81;21017;-79
2022/09/30 03:49:39;;;;;;;4.37;2.45;;;;;;;22.36;52.15;100346.91;1742025;81;21031;-80
2022/09/30 03:52:10;;;;;;;3.92;2.42;;;;;;;22.36;52.15;100348.30;1742342;81;21052;-80
2022/09/30 03:54:52;;;;;;;5.30;2.40;;;;;;;22.37;52.14;100351.28;1742173;81;21591;-80
2022/09/30 03:57:18;;;;;;;5.62;2.80;;;;;;;22.36;52.13;100342.75;1731257;82;21029;-80
2022/09/30 03:59:45;;;;;;;4.85;2.60;;;;;;;22.36;52.14;100344.70;1729571;82;21388;-80
2022/09/30 04:02:15;;;;;;;10.35;3.42;;;;;;;22.36;52.11;100356.61;1684545;83;21119;-79
2022/09/30 04:04:40;;;;;;;8.68;3.15;;;;;;;22.36;52.08;100355.80;1729688;80;21471;-80
2022/09/30 04:07:09;;;;;;;13.05;4.37;;;;;;;22.34;52.01;100356.13;1696743;83;21154;-80
2022/09/30 04:09:39;;;;;;;13.98;4.10;;;;;;;22.31;51.97;100359.02;1716306;81;21501;-79
2022/09/30 04:12:06;;;;;;;6.42;3.80;;;;;;;;;;1720208;81;21112;-78
2022/09/30 04:14:33;;;;;;;8.25;3.50;;;;;;;22.23;51.94;100354.36;1718335;82;22398;-78
2022/09/30 04:16:59;;;;;;;9.05;3.33;;;;;;;22.22;51.98;100361.62;1719227;82;21056;-78
2022/09/30 04:19:26;;;;;;;10.18;4.37;;;;;;;22.19;51.97;100364.47;1724295;82;21186;-78
2022/09/30 04:21:53;;;;;;;7.33;3.72;;;;;;;22.18;51.91;100375.91;1743555;82;20989;-78
2022/09/30 04:24:26;;;;;;;10.75;4.20;;;;;;;22.15;51.87;100371.84;1725331;82;21048;-79
2022/09/30 04:26:52;;;;;;;13.88;4.10;;;;;;;22.13;51.78;100375.55;1743753;82;21370;-79
2022/09/30 04:29:19;;;;;;;9.45;3.77;;;;;;;22.12;51.78;100378.06;1731563;82;21665;-80
2022/09/30 04:31:45;;;;;;;8.05;3.52;;;;;;;22.10;51.75;100378.19;1711899;82;21975;-80
2022/09/30 04:34:11;;;;;;;14.63;4.03;;;;;;;22.08;51.69;100382.66;1715432;82;21107;-78
2022/09/30 04:36:38;;;;;;;11.03;4.20;;;;;;;22.07;51.69;100381.03;1717151;81;21117;-78
2022/09/30 04:39:04;;;;;;;11.08;3.92;;;;;;;22.06;51.67;100380.01;1742925;80;21609;-80
2022/09/30 04:41:32;;;;;;;10.32;3.70;;;;;;;22.04;51.65;100379.52;1739543;80;21574;-79
2022/09/30 04:44:04;;;;;;;11.73;3.90;;;;;;;22.03;51.63;100383.43;1729046;81;21169;-80
2022/09/30 04:46:27;;;;;;;14.45;3.47;;;;;;;22.01;51.64;100376.86;1702409;81;21098;-82
2022/09/30 04:48:54;;;;;;;10.70;3.77;;;;;;;22.00;51.66;100384.11;1719327;82;21064;-80
2022/09/30 04:51:20;;;;;;;21.48;4.55;;;;;;;21.97;51.72;100384.23;1717145;82;21094;-83
2022/09/30 04:53:47;;;;;;;17.02;3.95;;;;;;;21.95;51.76;100384.30;1696304;82;21100;-82
2022/09/30 04:56:18;;;;;;;17.20;4.30;;;;;;;21.95;51.78;100379.58;1718382;82;21206;-84
2022/09/30 04:58:45;;;;;;;16.40;4.33;;;;;;;21.96;51.86;100370.13;1720832;81;21484;-80
2022/09/30 05:01:14;;;;;;;23.38;4.78;;;;;;;21.97;51.85;100389.77;1723723;81;21040;-82
2022/09/30 05:03:42;;;;;;;27.32;4.72;;;;;;;21.96;51.89;100385.37;1712502;81;22264;-80
2022/09/30 05:06:11;;;;;;;19.07;4.53;;;;;;;21.96;51.96;100385.37;1712108;80;21099;-82
2022/09/30 05:08:37;;;;;;;14.95;3.92;;;;;;;21.98;51.93;100380.88;1753681;80;21197;-79
2022/09/30 05:11:10;;;;;;;15.10;4.37;;;;;;;21.99;51.88;100370.02;1748882;79;21938;-79
2022/09/30 05:13:37;;;;;;;11.85;4.10;;;;;;;22.00;51.83;100375.80;1762742;78;21196;-80
2022/09/30 05:16:04;;;;;;;14.33;3.98;;;;;;;22.00;51.77;100384.11;1776055;78;21063;-79
2022/09/30 05:18:32;;;;;;;19.42;5.90;;;;;;;22.01;51.76;100391.28;1778734;78;21014;-80
2022/09/30 05:20:59;;;;;;;20.72;8.40;;;;;;;22.01;51.73;100395.44;1761018;79;21345;-79
2022/09/30 05:23:27;;;;;;;26.30;11.10;;;;;;;22.02;51.70;100399.27;1724870;81;21190;-80
2022/09/30 05:25:53;;;;;;;24.27;11.22;;;;;;;22.02;51.69;100408.97;1772635;78;21025;-80
2022/09/30 05:28:19;;;;;;;23.60;10.80;;;;;;;22.01;51.69;100406.52;1775119;79;21039;-78
2022/09/30 05:30:46;;;;;;;18.30;10.68;;;;;;;22.02;51.69;100412.30;1774236;79;21021;-77
2022/09/30 05:33:16;;;;;;;17.70;9.25;;;;;;;22.04;51.68;100410.80;1768959;79;22142;-84
2022/09/30 05:35:42;;;;;;;15.80;7.45;;;;;;;22.06;51.63;100409.09;1774726;79;21724;-86
2022/09/30 05:38:09;;;;;;;14.43;7.78;;;;;;;22.06;51.60;100414.06;1782753;79;21182;-87
2022/09/30 05:40:38;;;;;;;18.23;9.88;;;;;;;22.08;51.60;100408.98;1739344;80;21143;-88
2022/09/30 05:43:05;;;;;;;18.07;8.40;;;;;;;22.09;51.57;100409.80;1744412;80;21115;-86
2022/09/30 05:45:31;;;;;;;22.35;8.75;;;;;;;22.11;51.56;100411.64;1772517;79;21113;-87
2022/09/30 05:48:03;;;;;;;13.25;7.35;;;;;;;22.10;51.59;100415.58;1777894;79;21058;-81
2022/09/30 05:50:29;;;;;;;13.18;6.35;;;;;;;22.10;51.70;100415.58;1768916;79;21039;-82
2022/09/30 05:52:57;;;;;;;16.25;6.28;;;;;;;22.10;51.91;100416.40;1777820;78;21446;-81
2022/09/30 05:55:23;;;;;;;19.65;6.03;;;;;;;22.11;52.08;100425.49;1731898;79;21169;-80
2022/09/30 05:57:50;;;;;;;26.05;6.20;;;;;;;22.12;52.26;100424.35;1779997;78;21116;-77
2022/09/30 06:00:17;;;;;;;16.67;5.85;;;;;;;22.12;52.52;100428.51;1777589;79;21061;-77
2022/09/30 06:02:43;;;;;;;17.32;5.17;;;;;;;22.12;52.68;100423.78;1782970;78;21037;-78
2022/09/30 06:05:10;;;;;;;14.28;5.25;;;;;;;22.12;52.87;100432.09;1739758;80;21068;-77
2022/09/30 06:07:36;;;;;;;17.73;4.97;;;;;;;22.14;53.02;100434.54;1740588;80;21047;-77
2022/09/30 06:10:06;;;;;;;17.10;5.60;;;;;;;22.15;53.04;100433.40;1782508;78;21080;-83
2022/09/30 06:12:35;;;;;;;17.90;6.57;;;;;;;22.15;53.11;100436.95;1771293;79;21083;-85
2022/09/30 06:15:01;;;;;;;15.58;5.97;;;;;;;22.16;53.13;100438.58;1774222;79;21525;-84
2022/09/30 06:17:29;;;;;;;13.72;5.80;;;;;;;22.16;53.14;100450.23;1770436;79;21077;-84
2022/09/30 06:19:56;;;;;;;13.70;5.83;;;;;;;22.18;53.17;100456.27;1772277;79;21131;-80
2022/09/30 06:22:22;;;;;;;12.68;5.55;;;;;;;22.19;53.16;100464.83;1787354;79;22155;-83
2022/09/30 06:24:48;;;;;;;16.67;6.08;;;;;;;22.19;53.16;100468.38;1770020;79;21856;-84
2022/09/30 06:27:15;;;;;;;13.15;5.45;;;;;;;22.21;53.14;100472.22;1784183;79;21067;-81
2022/09/30 06:29:41;;;;;;;15.98;6.00;;;;;;;22.21;53.13;100470.26;1783360;78;21097;-81
2022/09/30 06:32:08;;;;;;;16.17;5.42;;;;;;;22.22;53.14;100475.23;1777870;79;21129;-83
2022/09/30 06:34:35;;;;;;;17.67;6.67;;;;;;;22.20;53.15;100479.70;1698644;81;21562;-80
2022/09/30 06:37:01;;;;;;;11.38;5.58;;;;;;;22.20;53.18;100481.09;1739718;81;21112;-83
2022/09/30 06:39:28;;;;;;;12.55;5.92;;;;;;;22.21;53.16;100486.06;1708268;81;21084;-79
2022/09/30 06:41:55;;;;;;;11.25;4.95;;;;;;;22.22;53.16;100489.08;1771482;79;21068;-80
2022/09/30 06:44:21;;;;;;;12.80;5.40;;;;;;;22.23;53.14;100499.84;1780320;79;21406;-82
2022/09/30 06:46:48;;;;;;;14.25;6.35;;;;;;;22.24;53.11;100499.24;1785065;79;21248;-77
2022/09/30 06:49:15;;;;;;;11.88;5.47;;;;;;;22.25;53.18;100514.16;1784935;78;21345;-78
2022/09/30 06:51:41;;;;;;;17.23;6.03;;;;;;;22.24;53.22;100509.75;1779392;78;21084;-83
2022/09/30 06:54:07;;;;;;;30.30;6.17;;;;;;;22.24;53.28;100515.30;1785415;79;21070;-83
2022/09/30 06:56:35;;;;;;;16.77;5.90;;;;;;;22.25;53.42;100515.55;1783529;78;21078;-84
2022/09/30 06:59:08;;;;;;;25.55;6.20;;;;;;;22.26;53.57;100514.41;1742595;80;21120;-82
2022/09/30 07:01:34;;;;;;;25.80;6.37;;;;;;;22.27;53.58;100515.22;1776262;78;21052;-80
2022/09/30 07:04:06;;;;;;;22.95;5.55;;;;;;;22.28;53.71;100516.82;1764110;79;21091;-77
2022/09/30 07:06:30;;;;;;;24.07;6.17;;;;;;;22.30;53.86;100522.28;1729275;79;21056;-80
2022/09/30 07:08:56;;;;;;;27.27;6.33;;;;;;;22.32;53.98;100526.09;1713614;82;21054;-78
2022/09/30 07:11:23;;;;;;;21.15;5.65;;;;;;;22.32;54.10;100515.00;1746263;80;21546;-78
2022/09/30 07:13:49;;;;;;;25.95;10.98;;;;;;;22.33;54.14;100518.83;1767808;79;21028;-79
2022/09/30 07:16:17;;;;;;;24.60;9.15;;;;;;;22.35;54.19;100519.08;1755569;79;21123;-78
2022/09/30 07:18:44;;;;;;;28.15;10.85;;;;;;;22.36;54.16;100522.09;1715860;81;21064;-78
2022/09/30 07:21:14;;;;;;;26.82;13.83;;;;;;;22.35;54.17;100517.12;1730362;80;21088;-80
2022/09/30 07:23:46;;;;;;;20.20;10.13;;;;;;;22.36;54.04;100517.37;1717655;81;21597;-80
2022/09/30 07:26:10;;;;;;;15.68;6.60;;;;;;;22.36;53.93;100511.83;1717129;81;21140;-79
2022/09/30 07:28:38;;;;;;;16.50;6.05;;;;;;;22.37;53.89;100518.97;1719648;81;21488;-79
2022/09/30 07:31:17;;;;;;;17.82;6.00;;;;;;;22.37;53.81;100520.92;1733231;82;21092;-78
2022/09/30 07:33:43;;;;;;;15.30;7.25;;;;;;;22.38;53.60;100523.94;1700284;81;21182;-79
2022/09/30 07:36:10;;;;;;;11.68;4.42;;;;;;;22.37;53.52;100521.73;1710222;81;21745;-80
2022/09/30 07:38:39;;;;;;;15.30;4.37;;;;;;;22.38;53.25;100522.55;1708479;81;21090;-81
2022/09/30 07:41:11;;;;;;;12.00;4.00;;;;;;;22.39;53.46;100527.77;1715930;81;21101;-79
2022/09/30 07:43:38;;;;;;;18.80;4.03;;;;;;;22.41;53.57;100535.16;1713377;81;21838;-83
2022/09/30 07:46:14;;;;;;;12.73;4.35;;;;;;;22.43;53.55;100537.04;1719066;81;21033;-85
2022/09/30 07:48:43;;;;;;;12.20;4.97;;;;;;;22.45;53.42;100538.88;1717399;82;21207;-83
2022/09/30 07:51:12;;;;;;;15.40;4.78;;;;;;;22.46;53.46;100541.09;1715907;81;21073;-79
2022/09/30 07:53:40;;;;;;;14.28;5.10;;;;;;;22.48;53.49;100547.94;1708961;81;20929;-79
2022/09/30 07:56:07;;;;;;;20.90;5.78;;;;;;;22.51;53.55;100556.95;1683769;81;21026;-77
2022/09/30 07:58:33;;;;;;;17.17;4.70;;;;;;;22.53;53.47;100550.48;1718404;81;21323;-78
2022/09/30 08:01:00;;;;;;;16.95;4.50;;;;;;;22.54;53.35;100550.73;1724235;81;21108;-73
2022/09/30 08:03:26;;;;;;;10.90;3.15;;;;;;;22.56;53.40;100559.54;1730349;81;21396;-76
2022/09/30 08:05:52;;;;;;;8.70;3.00;;;;;;;22.59;53.19;100562.20;1719947;82;21013;-75
2022/09/30 08:08:19;;;;;;;20.37;4.00;;;;;;;22.59;53.03;100557.47;1749834;80;20990;-75
2022/09/30 08:10:45;;;;;;;13.22;3.30;;;;;;;22.62;52.94;100565.67;1753978;79;21721;-78
2022/09/30 08:13:15;;;;;;;11.65;3.02;;;;;;;22.62;52.79;100567.88;1755538;80;21444;-76
2022/09/30 08:15:42;;;;;;;15.37;3.20;;;;;;;22.62;52.52;100566.49;1745438;81;21035;-77
2022/09/30 08:18:08;;;;;;;11.97;3.12;;;;;;;22.64;52.52;100563.39;1751446;80;21005;-77
2022/09/30 08:20:35;;;;;;;9.58;3.10;;;;;;;22.63;52.43;100566.73;1750607;80;21076;-76
2022/09/30 08:23:01;;;;;;;10.93;3.47;;;;;;;22.64;52.19;100568.94;1757488;80;21547;-75
2022/09/30 08:25:34;;;;;;;10.32;2.92;;;;;;;22.66;52.08;100566.66;1773603;79;21709;-76
2022/09/30 08:28:01;;;;;;;10.30;2.45;;;;;;;22.68;51.74;100568.50;1777588;79;21107;-80
2022/09/30 08:30:27;;;;;;;18.55;3.65;;;;;;;22.72;51.44;100573.07;1778036;79;21100;-80
2022/09/30 08:32:57;;;;;;;9.80;3.08;;;;;;;22.73;51.42;100576.09;1781269;78;21346;-77
2022/09/30 08:35:23;;;;;;;13.00;3.05;;;;;;;22.73;51.56;100571.92;1757202;79;21039;-76
2022/09/30 08:37:50;;;;;;;17.25;3.30;;;;;;;22.73;51.65;100581.63;1757425;79;22111;-78
2022/09/30 08:40:27;;;;;;;13.00;3.30;;;;;;;22.74;51.84;100574.91;1728698;80;21724;-75
2022/09/30 08:43:29;;;;;;;17.27;4.47;;;;;;;22.77;52.01;100577.61;1788714;78;21562;-73
2022/09/30 08:46:07;;;;;;;16.90;4.17;;;;;;;22.78;52.10;100574.27;1776473;78;21055;-72
2022/09/30 08:49:01;;;;;;;12.63;4.35;;;;;;;22.82;52.30;100577.41;1762310;78;36254;-75
2022/09/30 08:51:40;;;;;;;21.02;4.40;;;;;;;22.85;52.58;100573.14;1718169;78;21854;-76
2022/09/30 08:54:12;;;;;;;17.15;4.17;;;;;;;22.89;52.96;100578.24;1738094;80;21089;-79
2022/09/30 08:56:39;;;;;;;26.20;3.98;;;;;;;22.91;53.30;100580.12;1734427;80;20962;-80
2022/09/30 08:59:26;;;;;;;30.15;3.75;;;;;;;22.94;53.53;100578.86;1777207;79;21447;-80
2022/09/30 09:01:56;;;;;;;19.42;3.17;;;;;;;22.96;53.54;100568.79;1779221;78;20889;-81
2022/09/30 09:04:22;;;;;;;23.55;3.77;;;;;;;22.97;53.58;100578.17;1779999;78;26829;-79
2022/09/30 09:07:02;;;;;;;19.02;2.62;;;;;;;22.97;53.51;100574.58;1772980;79;21083;-81
2022/09/30 09:09:49;;;;;;;17.77;3.13;;;;;;;22.99;53.45;100582.83;1776228;78;20969;-80
2022/09/30 09:12:45;;;;;;;12.75;3.45;;;;;;;23.01;53.28;100579.69;1768792;79;21000;-80
2022/09/30 09:15:49;;;;;;;11.05;2.30;;;;;;;23.01;53.28;100579.69;1778620;79;20916;-81
2022/09/30 09:18:44;;;;;;;23.27;2.98;;;;;;;23.01;53.23;100580.50;1745207;80;21489;-80
2022/09/30 09:21:45;;;;;;;15.30;2.33;;;;;;;23.04;53.34;100591.52;1789897;79;20982;-80
2022/09/30 09:24:16;;;;;;;11.38;2.58;;;;;;;23.05;53.21;100591.16;1780314;79;21123;-81
2022/09/30 09:26:46;;;;;;;10.63;2.30;;;;;;;23.05;53.05;100599.48;1769141;79;21724;-80
2022/09/30 09:29:47;;;;;;;13.53;2.72;;;;;;;23.05;53.04;100593.13;1751779;79;21177;-79
2022/09/30 09:32:16;;;;;;;7.78;2.58;;;;;;;23.04;53.00;100591.52;1779634;79;21861;-80
2022/09/30 09:34:45;;;;;;;9.03;2.65;;;;;;;23.01;52.94;100594.38;1773293;79;21622;-80
2022/09/30 09:40:56;;;;;;;11.48;2.80;;;;;;;22.99;53.12;100588.94;1763694;79;21057;-80
2022/09/30 09:43:42;;;;;;;8.80;2.25;;;;;;;22.99;53.11;100586.17;1775024;79;21134;-81
2022/09/30 09:46:37;;;;;;;7.12;2.02;;;;;;;23.00;53.00;100586.41;1790851;78;21157;-78
2022/09/30 09:49:22;;;;;;;11.15;2.67;;;;;;;22.99;52.90;100584.21;1736839;78;21037;-79
2022/09/30 09:52:12;;;;;;;12.00;2.55;;;;;;;23.01;52.68;100580.50;1779393;79;20957;-83
2022/09/30 09:54:50;;;;;;;16.57;2.90;;;;;;;23.01;52.62;100586.05;1777833;79;21079;-81
2022/09/30 09:57:42;;;;;;;10.50;2.42;;;;;;;23.01;52.72;100586.63;1765557;79;21051;-84
2022/09/30 10:03:10;;;;;;;10.35;2.65;;;;;;;23.02;52.75;100579.94;1769539;79;21012;-80
2022/09/30 10:05:39;;;;;;;16.50;2.65;;;;;;;23.04;52.79;100575.66;1762843;79;21577;-77
2022/09/30 10:08:20;;;;;;;14.55;3.25;;;;;;;23.06;52.84;100576.72;1754200;79;21068;-80
2022/09/30 10:11:00;;;;;;;9.28;2.58;;;;;;;23.06;52.93;100578.92;1715692;82;21051;-79
2022/09/30 10:13:42;;;;;;;11.53;2.22;;;;;;;23.04;52.84;100583.98;1725914;82;21806;-78
2022/09/30 10:16:31;;;;;;;6.53;2.37;;;;;;;23.07;52.35;100580.55;1719492;82;21096;-80
2022/09/30 10:18:58;;;;;;;5.28;2.20;;;;;;;23.09;51.90;100577.41;1724415;82;21067;-81
2022/09/30 10:21:27;;;;;;;11.30;2.37;;;;;;;23.10;51.77;100568.76;1729643;81;21142;-80
2022/09/30 10:23:53;;;;;;;6.72;2.20;;;;;;;23.11;51.74;100570.96;1742485;79;21084;-80
2022/09/30 10:26:23;;;;;;;6.40;2.40;;;;;;;23.14;52.08;100573.05;1745243;80;22215;-80
2022/09/30 10:28:58;;;;;;;6.95;2.27;;;;;;;23.16;52.02;100566.02;1734022;79;21156;-82
2022/09/30 10:31:39;;;;;;;7.55;2.30;;;;;;;23.22;51.74;100565.22;1738736;80;21115;-80
2022/09/30 10:34:26;;;;;;;4.87;1.75;;;;;;;23.22;51.50;100562.44;1684381;82;21602;-81
2022/09/30 10:36:53;;;;;;;6.30;2.10;;;;;;;23.21;51.22;100554.69;1720597;83;21094;-81
2022/09/30 10:39:27;;;;;;;8.43;2.20;;;;;;;23.20;51.05;100554.47;1717483;81;21913;-80
2022/09/30 10:42:09;;;;;;;6.72;2.37;;;;;;;23.20;50.93;100550.31;1718591;81;21062;-81
2022/09/30 10:44:48;;;;;;;7.30;2.22;;;;;;;23.19;50.92;100543.70;1708044;81;21095;-79
2022/09/30 10:47:18;;;;;;;4.47;2.30;;;;;;;23.16;50.95;100532.72;1705434;81;21687;-81
2022/09/30 10:49:49;;;;;;;8.73;2.77;;;;;;;23.15;50.83;100537.22;1701095;81;21228;-81
2022/09/30 10:52:20;;;;;;;10.80;2.47;;;;;;;23.13;50.95;100543.66;1715038;81;21772;-80
2022/09/30 10:54:59;;;;;;;9.65;2.47;;;;;;;23.12;51.19;100542.07;1714793;81;21059;-81
2022/09/30 10:57:31;;;;;;;13.98;2.30;;;;;;;23.15;51.46;100539.41;1713932;81;21120;-86
2022/09/30 11:00:09;;;;;;;9.98;2.20;;;;;;;23.16;51.81;100548.55;1699876;81;21692;-81
2022/09/30 11:03:13;;;;;;;8.80;2.40;;;;;;;23.16;52.08;100549.37;1693058;83;21113;-77
2022/09/30 11:05:42;;;;;;;10.40;2.90;;;;;;;23.16;52.15;100542.44;1700990;81;21639;-79
2022/09/30 11:08:22;;;;;;;6.90;2.20;;;;;;;23.18;52.49;100546.23;1719127;80;20996;-79
2022/09/30 11:11:13;;;;;;;11.83;2.62;;;;;;;23.20;52.68;100548.11;1771549;79;21513;-77
2022/09/30 11:13:53;;;;;;;;;;;;;;;23.21;52.83;100546.96;1771074;79;21119;-79
2022/09/30 11:16:36;;;;;;;12.88;2.40;;;;;;;23.21;52.88;100550.52;1779269;78;20271;-81
2022/09/30 11:19:20;;;;;;;6.55;2.30;;;;;;;23.20;52.79;100555.05;1742924;80;21334;-81
2022/09/30 11:22:10;;;;;;;7.87;2.83;;;;;;;23.19;52.83;100560.36;1746256;81;21311;-80
2022/09/30 11:24:43;;;;;;;15.50;2.87;;;;;;;23.17;52.71;100551.55;1745592;81;21387;-81
2022/09/30 11:27:50;;;;;;;9.00;2.72;;;;;;;23.15;52.70;100542.19;1754742;80;21384;-79
2022/09/30 11:30:31;;;;;;;8.70;2.60;;;;;;;23.13;52.75;100538.12;1750918;81;21024;-78
2022/09/30 11:33:14;;;;;;;6.47;2.27;;;;;;;23.12;52.68;100542.88;1744882;80;21084;-80
2022/09/30 11:36:13;;;;;;;7.10;2.70;;;;;;;23.10;52.65;100545.17;1756081;80;21131;-78
2022/09/30 11:39:15;;;;;;;6.15;2.55;;;;;;;23.08;52.57;100546.11;1752630;80;21040;-80
2022/09/30 11:41:49;;;;;;;5.72;2.70;;;;;;;23.08;52.51;100545.29;1743646;80;21726;-79
2022/09/30 11:44:35;;;;;;;7.60;3.20;;;;;;;23.07;52.56;100561.70;1784427;79;20972;-81
2022/09/30 11:47:19;;;;;;;4.97;2.58;;;;;;;23.06;52.56;100562.27;1767536;79;22148;-81
2022/09/30 11:50:23;;;;;;;7.03;2.58;;;;;;;23.06;52.62;100566.43;1766043;78;21374;-79
2022/09/30 11:52:55;;;;;;;7.97;2.62;;;;;;;23.05;52.70;100566.76;1725641;78;21264;-78
2022/09/30 11:55:42;;;;;;;9.03;3.17;;;;;;;23.04;52.84;100566.55;1742817;78;21433;-76
2022/09/30 11:58:15;;;;;;;10.25;2.52;;;;;;;23.07;53.11;100568.63;1743552;79;21047;-76
2022/09/30 12:00:44;;;;;;;10.45;3.27;;;;;;;23.12;53.28;100566.47;1770913;79;21215;-74